Time;durP1;ratioP1;P1;durP2;ratioP2;P2;SDS_P1;SDS_P2;PMS_P1;PMS_P2;Temp;Humidity;BMP_temperature;BMP_pressure;BME280_temperature;BME280_humidity;BME280_pressure;Samples;Min_cycle;Max_cycle;Signal;HPM_P1;HPM_P2
2021/01/02 00:02:25;;;;;;;39.17;23.52;;;4.40;99.90;;;;;;5013765;28;20477;-87
2021/01/02 00:05:03;;;;;;;39.40;23.00;;;4.40;99.90;;;;;;5012053;28;20111;-87
2021/01/02 00:07:44;;;;;;;40.05;22.42;;;4.30;99.90;;;;;;5012064;28;20050;-86
2021/01/02 00:10:14;;;;;;;37.33;23.17;;;4.30;99.90;;;;;;5011861;28;20093;-86
2021/01/02 00:13:04;;;;;;;41.20;23.90;;;4.30;99.90;;;;;;5016026;28;20029;-87
2021/01/02 00:15:50;;;;;;;41.15;23.02;;;4.30;99.90;;;;;;5014269;28;20026;-88
2021/01/02 00:18:31;;;;;;;41.97;23.98;;;4.30;99.90;;;;;;5016805;28;20084;-87
2021/01/02 00:21:22;;;;;;;40.53;24.15;;;4.30;99.90;;;;;;5014249;28;20033;-88
2021/01/02 00:24:25;;;;;;;40.22;25.00;;;4.30;99.90;;;;;;5011344;28;20075;-87
2021/01/02 00:27:06;;;;;;;40.13;23.80;;;4.30;99.90;;;;;;5013014;28;20030;-87
2021/01/02 00:30:03;;;;;;;47.10;25.50;;;4.30;99.90;;;;;;5011902;28;20021;-87
2021/01/02 00:32:46;;;;;;;44.10;25.90;;;4.20;99.90;;;;;;5011214;28;20045;-87
2021/01/02 00:35:22;;;;;;;41.55;25.08;;;4.30;99.90;;;;;;5011998;28;20084;-87
2021/01/02 00:38:05;;;;;;;49.10;24.85;;;4.20;99.90;;;;;;5012574;28;20076;-88
2021/01/02 00:40:33;;;;;;;41.60;24.30;;;4.30;99.90;;;;;;5013946;28;20018;-88
2021/01/02 00:42:59;;;;;;;42.42;25.27;;;4.20;99.90;;;;;;5014196;28;20474;-88
2021/01/02 00:45:26;;;;;;;40.38;24.25;;;4.20;99.90;;;;;;5013708;28;20072;-86
2021/01/02 00:47:53;;;;;;;42.97;26.02;;;4.20;99.90;;;;;;5013014;28;20054;-88
2021/01/02 00:50:21;;;;;;;41.85;26.05;;;4.20;99.90;;;;;;5013072;28;20105;-88
2021/01/02 00:52:46;;;;;;;49.47;27.20;;;4.20;99.90;;;;;;5013133;28;20080;-87
2021/01/02 00:55:57;;;;;;;42.80;24.58;;;4.20;99.90;;;;;;5012843;28;20425;-87
2021/01/02 00:58:27;;;;;;;41.33;23.40;;;4.20;99.90;;;;;;5012844;28;20022;-87
2021/01/02 01:00:59;;;;;;;44.13;25.42;;;4.20;99.90;;;;;;5012795;28;20421;-87
2021/01/02 01:03:56;;;;;;;37.45;24.63;;;4.20;99.90;;;;;;5008725;28;20029;-87
2021/01/02 01:06:25;;;;;;;43.80;24.55;;;4.30;99.90;;;;;;5012345;28;20500;-88
2021/01/02 01:08:53;;;;;;;50.53;26.25;;;4.20;99.90;;;;;;5012617;28;20080;-88
2021/01/02 01:11:22;;;;;;;46.63;26.17;;;4.20;99.90;;;;;;5012732;28;20029;-88
2021/01/02 01:13:54;;;;;;;49.92;25.73;;;4.20;99.90;;;;;;5010293;28;20033;-87
2021/01/02 01:16:25;;;;;;;46.80;24.95;;;4.20;99.90;;;;;;5012518;28;20032;-87
2021/01/02 01:19:01;;;;;;;44.42;25.20;;;4.10;99.90;;;;;;5010698;28;20489;-87
2021/01/02 01:21:29;;;;;;;50.58;26.60;;;4.20;99.90;;;;;;5018339;28;20109;-87
2021/01/02 01:24:54;;;;;;;48.45;26.75;;;4.10;99.90;;;;;;5012709;28;20026;-87
2021/01/02 01:27:28;;;;;;;49.05;26.20;;;4.20;99.90;;;;;;4937501;29;20047;-87
2021/01/02 01:29:59;;;;;;;42.88;26.00;;;4.10;99.90;;;;;;4944788;28;20117;-86
2021/01/02 01:32:26;;;;;;;42.78;25.08;;;4.10;99.90;;;;;;4989517;28;20070;-87
2021/01/02 01:35:03;;;;;;;44.15;24.65;;;4.10;99.90;;;;;;5012096;28;20105;-87
2021/01/02 01:37:30;;;;;;;40.60;24.20;;;4.10;99.90;;;;;;5010226;28;20114;-87
2021/01/02 01:39:57;;;;;;;40.58;25.20;;;4.10;99.90;;;;;;5012273;28;20030;-87
2021/01/02 01:42:38;;;;;;;43.47;25.90;;;4.10;99.90;;;;;;5012130;28;20033;-87
2021/01/02 01:45:32;;;;;;;50.42;28.20;;;4.20;99.90;;;;;;5011961;28;20028;-87
2021/01/02 01:48:09;;;;;;;40.72;24.77;;;4.10;99.90;;;;;;5011082;28;20478;-87
2021/01/02 01:51:08;;;;;;;44.67;24.85;;;4.10;99.90;;;;;;5010688;28;20032;-88
2021/01/02 01:53:55;;;;;;;37.13;23.43;;;4.10;99.90;;;;;;5018811;28;20098;-87
2021/01/02 01:56:44;;;;;;;43.75;26.08;;;4.10;99.90;;;;;;5011413;28;20687;-87
2021/01/02 01:59:28;;;;;;;43.53;27.33;;;4.10;99.90;;;;;;5009799;28;20113;-87
2021/01/02 02:01:56;;;;;;;42.42;23.58;;;4.10;99.90;;;;;;5010410;28;20026;-87
2021/01/02 02:04:59;;;;;;;40.85;23.95;;;4.10;99.90;;;;;;5011702;28;20022;-88
2021/01/02 02:07:46;;;;;;;41.00;22.73;;;4.10;99.90;;;;;;5011622;28;20026;-88
2021/01/02 02:10:26;;;;;;;43.08;24.67;;;4.10;99.90;;;;;;5017872;28;20537;-87
2021/01/02 02:12:57;;;;;;;39.83;25.48;;;4.00;99.90;;;;;;5009927;28;20124;-88
2021/01/02 02:15:28;;;;;;;43.80;25.52;;;4.00;99.90;;;;;;5011830;28;20028;-88
2021/01/02 02:18:07;;;;;;;43.72;26.48;;;4.00;99.90;;;;;;5011510;28;20911;-87
2021/01/02 02:20:35;;;;;;;40.23;24.97;;;4.00;99.90;;;;;;5029421;28;20100;-87
2021/01/02 02:23:04;;;;;;;43.72;25.75;;;4.00;99.90;;;;;;5018806;28;20038;-87
2021/01/02 02:25:45;;;;;;;43.35;25.88;;;4.00;99.90;;;;;;5018573;28;20029;-87
2021/01/02 02:28:35;;;;;;;41.72;24.98;;;4.00;99.90;;;;;;5016605;28;20018;-86
2021/01/02 02:31:07;;;;;;;41.08;24.98;;;4.00;99.90;;;;;;5028470;28;20094;-87
2021/01/02 02:33:35;;;;;;;47.45;26.50;;;4.00;99.90;;;;;;5018373;28;20014;-87
2021/01/02 02:36:02;;;;;;;43.38;26.95;;;4.00;99.90;;;;;;5019273;28;20072;-87
2021/01/02 02:38:37;;;;;;;48.72;28.10;;;4.00;99.90;;;;;;5018536;28;20076;-87
2021/01/02 02:41:05;;;;;;;42.33;25.80;;;3.90;99.90;;;;;;5017684;28;20097;-87
2021/01/02 02:43:33;;;;;;;44.10;26.13;;;4.00;99.90;;;;;;5019518;28;20093;-88
2021/01/02 02:46:00;;;;;;;40.95;26.52;;;3.90;99.90;;;;;;5019141;28;20076;-87
2021/01/02 02:48:27;;;;;;;44.85;26.10;;;3.90;99.90;;;;;;5015200;28;20028;-87
2021/01/02 02:50:54;;;;;;;41.72;25.77;;;3.90;99.90;;;;;;5018084;28;20474;-87
2021/01/02 02:53:20;;;;;;;40.88;25.92;;;3.90;99.90;;;;;;5020128;28;20024;-87
2021/01/02 02:55:46;;;;;;;44.60;26.38;;;3.90;99.90;;;;;;5017369;28;20105;-87
2021/01/02 02:58:13;;;;;;;45.45;26.80;;;3.90;99.90;;;;;;5019408;28;20531;-87
2021/01/02 03:00:39;;;;;;;44.05;25.00;;;3.90;99.90;;;;;;5018527;28;20022;-87
2021/01/02 03:03:11;;;;;;;37.50;23.23;;;3.90;99.90;;;;;;5017777;28;20190;-86
2021/01/02 03:05:39;;;;;;;41.70;24.60;;;4.00;99.90;;;;;;5019054;28;20030;-86
2021/01/02 03:08:08;;;;;;;42.22;24.50;;;4.00;99.90;;;;;;5017624;28;20018;-87
2021/01/02 03:10:34;;;;;;;43.60;25.60;;;4.00;99.90;;;;;;5017990;28;20037;-87
2021/01/02 03:13:00;;;;;;;42.00;25.67;;;4.00;99.90;;;;;;5019018;28;20026;-87
2021/01/02 03:15:30;;;;;;;40.72;25.67;;;4.00;99.90;;;;;;5017805;28;20379;-87
2021/01/02 03:17:56;;;;;;;41.42;26.02;;;3.90;99.90;;;;;;5016955;28;20029;-88
2021/01/02 03:20:22;;;;;;;41.92;26.35;;;4.00;99.90;;;;;;5016643;28;20022;-88
2021/01/02 03:22:49;;;;;;;42.13;25.90;;;3.90;99.90;;;;;;5016763;28;20554;-87
2021/01/02 03:25:16;;;;;;;44.25;26.52;;;3.90;99.90;;;;;;5016954;28;20029;-87
2021/01/02 03:27:42;;;;;;;39.60;25.23;;;3.90;99.90;;;;;;5016895;28;20026;-87
2021/01/02 03:30:10;;;;;;;41.80;26.50;;;4.00;99.90;;;;;;5018837;28;20385;-87
2021/01/02 03:32:36;;;;;;;41.72;24.75;;;4.00;99.90;;;;;;5014566;28;20045;-87
2021/01/02 03:35:11;;;;;;;41.08;26.42;;;4.00;99.90;;;;;;5016173;28;20018;-87
2021/01/02 03:37:38;;;;;;;34.67;22.58;;;4.00;99.90;;;;;;5014356;28;20390;-87
2021/01/02 03:40:09;;;;;;;38.03;24.25;;;4.00;99.90;;;;;;5011799;28;20021;-87
2021/01/02 03:42:38;;;;;;;41.83;27.30;;;4.00;99.90;;;;;;5015190;28;20117;-86
2021/01/02 03:45:05;;;;;;;41.63;26.20;;;4.00;99.90;;;;;;5014490;28;20064;-87
2021/01/02 03:47:31;;;;;;;41.72;26.55;;;4.00;99.90;;;;;;5014085;28;20109;-87
2021/01/02 03:49:56;;;;;;;37.92;25.08;;;3.90;99.90;;;;;;5014296;28;20046;-87
2021/01/02 03:52:22;;;;;;;40.28;25.58;;;3.90;99.90;;;;;;5013984;28;20021;-87
2021/01/02 03:54:48;;;;;;;45.17;26.80;;;3.90;99.90;;;;;;5014128;28;20018;-87
2021/01/02 03:57:13;;;;;;;44.80;26.75;;;3.90;99.90;;;;;;5014159;28;20539;-87
2021/01/02 03:59:40;;;;;;;46.00;27.55;;;3.90;99.90;;;;;;5013872;28;20132;-87
2021/01/02 04:02:06;;;;;;;42.65;25.77;;;3.90;99.90;;;;;;5013953;28;20049;-87
2021/01/02 04:04:31;;;;;;;42.53;28.00;;;3.80;99.90;;;;;;5013711;28;20013;-87
2021/01/02 04:07:00;;;;;;;42.53;26.50;;;3.80;99.90;;;;;;5013582;28;20055;-87
2021/01/02 04:09:26;;;;;;;40.47;26.50;;;3.80;99.90;;;;;;5011556;28;20018;-87
2021/01/02 04:11:52;;;;;;;41.70;26.35;;;3.70;99.90;;;;;;5013610;28;20128;-87
2021/01/02 04:14:17;;;;;;;43.55;26.85;;;3.70;99.90;;;;;;5013710;28;20080;-87
2021/01/02 04:16:43;;;;;;;43.33;26.60;;;3.70;99.90;;;;;;5013639;28;20028;-87
2021/01/02 04:19:10;;;;;;;44.97;27.27;;;3.70;99.90;;;;;;5013725;28;20030;-87
2021/01/02 04:21:37;;;;;;;42.28;26.52;;;3.70;99.90;;;;;;5013572;28;20022;-86
2021/01/02 04:24:03;;;;;;;41.35;25.77;;;3.70;99.90;;;;;;5013643;28;20022;-87
2021/01/02 04:26:29;;;;;;;41.67;27.10;;;3.70;99.90;;;;;;5013495;28;20466;-88
2021/01/02 04:28:55;;;;;;;43.03;27.15;;;3.70;99.90;;;;;;5013335;28;20030;-87
2021/01/02 04:31:30;;;;;;;39.42;25.00;;;3.70;99.90;;;;;;5013391;28;20054;-87
2021/01/02 04:33:56;;;;;;;45.97;27.48;;;3.70;99.90;;;;;;5014057;28;20105;-87
2021/01/02 04:36:21;;;;;;;42.70;25.52;;;3.70;99.90;;;;;;5013282;28;20065;-87
2021/01/02 04:38:47;;;;;;;41.53;26.02;;;3.70;99.90;;;;;;5013259;28;20022;-87
2021/01/02 04:41:16;;;;;;;43.85;26.77;;;3.70;99.90;;;;;;5013441;28;20033;-87
2021/01/02 04:43:45;;;;;;;46.20;27.90;;;3.70;99.90;;;;;;5013857;28;20021;-87
2021/01/02 04:46:13;;;;;;;44.42;27.95;;;3.70;99.90;;;;;;5013517;28;20021;-87
2021/01/02 04:48:42;;;;;;;42.22;26.77;;;3.60;99.90;;;;;;5013124;28;20029;-87
2021/01/02 04:51:15;;;;;;;42.42;25.48;;;3.60;99.90;;;;;;5013101;28;20014;-87
2021/01/02 04:53:41;;;;;;;44.72;27.38;;;3.60;99.90;;;;;;5012661;28;20072;-87
2021/01/02 04:56:08;;;;;;;45.95;28.13;;;3.60;99.90;;;;;;5013081;28;20026;-87
2021/01/02 04:58:40;;;;;;;49.08;28.80;;;3.60;99.90;;;;;;5012978;28;20021;-87
2021/01/02 05:01:08;;;;;;;49.72;28.95;;;3.60;99.90;;;;;;5007482;28;20021;-87
2021/01/02 05:03:37;;;;;;;51.10;28.88;;;3.50;99.90;;;;;;5001721;28;20034;-87
2021/01/02 05:06:05;;;;;;;51.37;29.03;;;3.50;99.90;;;;;;4997088;28;20022;-87
2021/01/02 05:08:31;;;;;;;50.33;28.63;;;3.50;99.90;;;;;;5001271;28;20429;-87
2021/01/02 05:11:04;;;;;;;47.30;28.20;;;3.50;99.90;;;;;;4999171;28;20071;-86
2021/01/02 05:13:34;;;;;;;49.40;29.80;;;3.50;99.90;;;;;;4998108;28;20032;-87
2021/01/02 05:16:14;;;;;;;48.53;28.80;;;3.50;99.90;;;;;;4995969;28;20026;-87
2021/01/02 05:19:01;;;;;;;45.95;29.30;;;3.50;99.90;;;;;;4997221;28;20030;-87
2021/01/02 05:21:28;;;;;;;44.97;27.30;;;3.50;99.90;;;;;;5006284;28;20501;-88
2021/01/02 05:24:17;;;;;;;47.42;29.00;;;3.50;99.90;;;;;;5003046;28;20501;-87
2021/01/02 05:26:52;;;;;;;55.47;32.15;;;3.50;99.90;;;;;;4993154;28;20493;-87
2021/01/02 05:29:24;;;;;;;53.75;31.92;;;3.50;99.90;;;;;;5014851;28;20025;-88
2021/01/02 05:31:55;;;;;;;53.00;31.80;;;3.50;99.90;;;;;;5013774;28;20407;-86
2021/01/02 05:34:26;;;;;;;58.72;33.03;;;3.50;99.90;;;;;;4999154;28;20375;-87
2021/01/02 05:37:08;;;;;;;58.40;33.70;;;3.40;99.90;;;;;;4999160;28;20026;-87
2021/01/02 05:39:43;;;;;;;52.05;31.40;;;3.50;99.90;;;;;;4993915;28;20029;-87
2021/01/02 05:42:09;;;;;;;63.60;33.85;;;3.40;99.90;;;;;;4994706;28;20056;-87
2021/01/02 05:44:39;;;;;;;60.85;33.33;;;3.50;99.90;;;;;;5013819;28;20045;-87
2021/01/02 05:47:06;;;;;;;57.15;31.95;;;3.50;99.90;;;;;;4997709;28;20026;-87
2021/01/02 05:49:46;;;;;;;56.22;30.67;;;3.50;99.90;;;;;;4999309;28;20386;-87
2021/01/02 05:52:12;;;;;;;61.60;34.08;;;3.50;99.90;;;;;;5006594;28;20054;-86
2021/01/02 05:55:00;;;;;;;63.33;34.50;;;3.50;99.90;;;;;;4995735;28;20030;-87
2021/01/02 05:57:29;;;;;;;62.33;34.22;;;3.50;99.90;;;;;;4994735;28;20026;-87
2021/01/02 05:59:57;;;;;;;56.97;31.35;;;3.50;99.90;;;;;;4996321;28;20030;-87
2021/01/02 06:02:30;;;;;;;57.47;33.80;;;3.50;99.90;;;;;;4997537;28;20033;-87
2021/01/02 06:05:07;;;;;;;61.47;34.35;;;3.50;99.90;;;;;;4995091;28;20014;-87
2021/01/02 06:07:37;;;;;;;56.35;32.63;;;3.50;99.90;;;;;;4997969;28;20026;-87
2021/01/02 06:10:05;;;;;;;60.25;35.50;;;3.50;99.90;;;;;;4993639;28;20486;-87
2021/01/02 06:12:38;;;;;;;62.95;34.53;;;3.50;99.90;;;;;;4991470;28;20053;-87
2021/01/02 06:15:09;;;;;;;69.40;37.13;;;3.50;99.90;;;;;;5001805;28;20269;-87
2021/01/02 06:17:43;;;;;;;60.95;33.78;;;3.50;99.90;;;;;;4995464;28;20494;-87
2021/01/02 06:20:13;;;;;;;64.63;34.85;;;3.50;99.90;;;;;;4995619;28;20026;-86
2021/01/02 06:22:41;;;;;;;58.92;34.00;;;3.50;99.90;;;;;;4992530;28;20084;-87
2021/01/02 06:25:09;;;;;;;68.93;36.58;;;3.40;99.90;;;;;;4997039;28;20054;-87
2021/01/02 06:27:38;;;;;;;64.55;35.08;;;3.40;99.90;;;;;;4994506;28;20209;-87
2021/01/02 06:30:05;;;;;;;61.45;34.53;;;3.50;99.90;;;;;;4997281;28;20093;-87
2021/01/02 06:32:30;;;;;;;62.15;36.72;;;3.50;99.90;;;;;;5007693;28;20498;-87
2021/01/02 06:35:08;;;;;;;65.50;35.28;;;3.50;99.90;;;;;;4995848;28;20085;-86
2021/01/02 06:37:49;;;;;;;59.90;35.13;;;3.50;99.90;;;;;;5001020;28;20022;-86
2021/01/02 06:40:29;;;;;;;62.72;35.05;;;3.50;99.90;;;;;;5007022;28;20040;-87
2021/01/02 06:42:56;;;;;;;60.25;33.15;;;3.60;99.90;;;;;;5010377;28;20040;-87
2021/01/02 06:45:37;;;;;;;58.17;33.95;;;3.60;99.90;;;;;;5006695;28;20019;-87
2021/01/02 06:48:27;;;;;;;56.42;30.80;;;3.60;99.90;;;;;;4992525;28;20513;-87
2021/01/02 06:50:53;;;;;;;53.90;31.75;;;3.60;99.90;;;;;;5001477;28;20030;-87
2021/01/02 06:53:23;;;;;;;56.15;32.65;;;3.60;99.90;;;;;;5011571;28;20390;-87
2021/01/02 06:56:01;;;;;;;67.88;35.03;;;3.60;99.90;;;;;;5011677;28;20055;-87
2021/01/02 06:58:38;;;;;;;59.65;32.55;;;3.60;99.90;;;;;;5011695;28;20060;-87
2021/01/02 07:01:07;;;;;;;63.78;35.00;;;3.60;99.90;;;;;;5011943;28;20076;-87
2021/01/02 07:03:39;;;;;;;58.22;33.70;;;3.60;99.90;;;;;;5011629;28;20653;-87
2021/01/02 07:06:20;;;;;;;62.78;34.85;;;3.60;99.90;;;;;;5012404;28;20089;-87
2021/01/02 07:08:53;;;;;;;63.13;36.38;;;3.60;99.90;;;;;;5013191;28;20418;-87
2021/01/02 07:11:35;;;;;;;69.35;36.03;;;3.60;99.90;;;;;;5015120;28;20478;-88
2021/01/02 07:14:10;;;;;;;61.17;34.20;;;3.60;99.90;;;;;;5015301;28;20390;-88
2021/01/02 07:16:46;;;;;;;61.22;34.35;;;3.50;99.90;;;;;;5015532;28;20113;-87
2021/01/02 07:19:24;;;;;;;64.32;37.15;;;3.50;99.90;;;;;;5015270;28;20080;-87
2021/01/02 07:22:16;;;;;;;64.25;35.55;;;3.50;99.90;;;;;;5017263;28;20080;-87
2021/01/02 07:24:53;;;;;;;70.88;38.33;;;3.60;99.90;;;;;;5015674;28;20061;-89
2021/01/02 07:27:21;;;;;;;69.50;38.05;;;3.50;99.90;;;;;;5015489;28;20330;-87
2021/01/02 07:29:52;;;;;;;65.35;35.75;;;3.50;99.90;;;;;;5015486;28;20370;-87
2021/01/02 07:32:29;;;;;;;70.95;37.45;;;3.60;99.90;;;;;;5015043;28;20132;-88
2021/01/02 07:35:04;;;;;;;64.88;34.95;;;3.60;99.90;;;;;;5015028;28;20061;-87
2021/01/02 07:37:54;;;;;;;63.22;35.30;;;3.50;99.90;;;;;;5014622;28;20028;-87
2021/01/02 07:40:20;;;;;;;69.45;38.08;;;3.60;99.90;;;;;;5014430;28;20018;-88
2021/01/02 07:42:50;;;;;;;65.40;35.83;;;3.50;99.90;;;;;;5014257;28;20504;-87
2021/01/02 07:45:21;;;;;;;67.70;37.92;;;3.50;99.90;;;;;;5014142;28;20022;-87
2021/01/02 07:47:58;;;;;;;68.20;36.13;;;3.50;99.90;;;;;;5014239;28;20033;-88
2021/01/02 07:50:26;;;;;;;62.08;35.20;;;3.50;99.90;;;;;;5014258;28;20029;-87
2021/01/02 07:52:58;;;;;;;59.75;33.03;;;3.50;99.90;;;;;;5011979;28;20026;-87
2021/01/02 07:55:25;;;;;;;62.22;33.97;;;3.50;99.90;;;;;;5014106;28;20048;-87
2021/01/02 07:57:52;;;;;;;67.82;36.15;;;3.50;99.90;;;;;;5014723;28;20489;-87
2021/01/02 08:00:19;;;;;;;69.68;37.17;;;3.50;99.90;;;;;;5014398;28;20037;-87
2021/01/02 08:02:45;;;;;;;64.50;35.42;;;3.50;99.90;;;;;;5013906;28;20030;-87
2021/01/02 08:05:18;;;;;;;70.15;35.83;;;3.50;99.90;;;;;;5014199;28;20026;-87
2021/01/02 08:07:58;;;;;;;68.85;36.88;;;3.50;99.90;;;;;;5014349;28;20485;-87
2021/01/02 08:10:24;;;;;;;64.30;35.28;;;3.60;99.90;;;;;;5013832;28;20340;-87
2021/01/02 08:12:52;;;;;;;72.07;38.00;;;3.50;99.90;;;;;;5012970;28;20041;-87
2021/01/02 08:15:37;;;;;;;65.15;34.83;;;3.50;99.90;;;;;;5013086;28;20029;-87
2021/01/02 08:18:08;;;;;;;66.60;35.72;;;3.50;99.90;;;;;;5012878;28;20053;-87
2021/01/02 08:20:34;;;;;;;61.17;34.08;;;3.50;99.90;;;;;;5015375;28;20496;-87
2021/01/02 08:23:10;;;;;;;71.47;37.80;;;3.50;99.90;;;;;;5011209;28;20037;-88
2021/01/02 08:25:36;;;;;;;76.13;37.92;;;3.60;99.90;;;;;;5014943;28;20030;-88
2021/01/02 08:28:04;;;;;;;80.10;40.38;;;3.50;99.90;;;;;;5033293;28;20509;-88
2021/01/02 08:30:29;;;;;;;76.90;37.05;;;3.50;99.90;;;;;;5028639;28;20047;-88
2021/01/02 08:32:59;;;;;;;73.82;37.22;;;3.50;99.90;;;;;;4994703;28;20034;-89
2021/01/02 08:35:37;;;;;;;79.67;40.00;;;3.50;99.90;;;;;;4994684;28;20030;-88
2021/01/02 08:38:13;;;;;;;75.18;35.97;;;3.50;99.90;;;;;;4994934;28;20026;-87
2021/01/02 08:40:49;;;;;;;69.97;36.05;;;3.50;99.90;;;;;;4994439;28;20470;-88
2021/01/02 08:43:22;;;;;;;76.30;38.47;;;3.50;99.90;;;;;;5007366;28;20029;-87
2021/01/02 08:45:48;;;;;;;66.00;36.33;;;3.50;99.90;;;;;;5013378;28;20056;-88
2021/01/02 08:48:13;;;;;;;74.55;39.50;;;3.40;99.90;;;;;;5030090;28;20426;-87
2021/01/02 08:50:40;;;;;;;73.78;37.97;;;3.50;99.90;;;;;;5033534;28;20022;-88
2021/01/02 08:53:06;;;;;;;71.57;36.75;;;3.50;99.90;;;;;;5034724;28;20026;-87
2021/01/02 08:55:32;;;;;;;71.32;38.00;;;3.50;99.90;;;;;;5033793;28;20030;-89
2021/01/02 08:57:57;;;;;;;70.40;36.72;;;3.40;99.90;;;;;;5018894;28;20442;-88
2021/01/02 09:00:29;;;;;;;76.88;37.67;;;3.50;99.90;;;;;;5021807;28;20052;-88
2021/01/02 09:02:55;;;;;;;75.40;38.05;;;3.50;99.90;;;;;;5020855;28;20084;-88
2021/01/02 09:05:31;;;;;;;78.22;39.25;;;3.50;99.90;;;;;;5019014;28;20025;-88
2021/01/02 09:08:04;;;;;;;85.97;41.05;;;3.50;99.90;;;;;;5000773;28;20026;-87
2021/01/02 09:10:34;;;;;;;77.35;38.75;;;3.50;99.90;;;;;;5014186;28;20029;-87
2021/01/02 09:13:03;;;;;;;;;;;3.40;99.90;;;;;;5001394;28;20033;-88
2021/01/02 09:15:49;;;;;;;78.93;35.75;;;3.40;99.90;;;;;;5013355;28;19905;-87
2021/01/02 09:18:18;;;;;;;82.07;39.35;;;3.40;99.90;;;;;;5013242;28;20494;-88
2021/01/02 09:20:44;;;;;;;80.30;40.63;;;3.40;99.90;;;;;;5013280;28;20032;-87
2021/01/02 09:23:09;;;;;;;80.10;38.67;;;3.40;99.90;;;;;;5013255;28;20393;-88
2021/01/02 09:25:37;;;;;;;85.35;40.50;;;3.50;99.90;;;;;;5012918;28;20041;-88
2021/01/02 09:28:11;;;;;;;83.72;40.25;;;3.50;99.90;;;;;;5020357;28;20026;-88
2021/01/02 09:30:36;;;;;;;83.65;40.22;;;3.50;99.90;;;;;;5012007;28;20054;-89
2021/01/02 09:33:02;;;;;;;84.72;41.00;;;3.50;99.90;;;;;;5012768;28;20066;-88
2021/01/02 09:35:28;;;;;;;87.97;41.15;;;3.50;99.90;;;;;;5010922;28;20030;-89
2021/01/02 09:37:53;;;;;;;83.82;39.22;;;3.50;99.90;;;;;;5013214;28;20029;-87
2021/01/02 09:40:21;;;;;;;84.07;40.10;;;3.50;99.90;;;;;;5013292;28;20026;-88
2021/01/02 09:42:47;;;;;;;91.80;42.78;;;3.50;99.90;;;;;;5012748;28;20033;-89
2021/01/02 09:45:14;;;;;;;101.85;43.05;;;3.50;99.90;;;;;;5015078;28;20478;-88
2021/01/02 09:47:40;;;;;;;97.35;42.22;;;3.50;99.90;;;;;;5015497;28;20025;-88
2021/01/02 09:50:06;;;;;;;93.43;42.17;;;3.50;99.90;;;;;;5013407;28;20033;-88
2021/01/02 09:52:32;;;;;;;88.18;41.92;;;3.50;99.90;;;;;;5011690;28;20037;-89
2021/01/02 09:54:57;;;;;;;89.55;41.90;;;3.50;99.90;;;;;;5024644;28;20377;-88
2021/01/02 09:57:23;;;;;;;84.57;39.17;;;3.50;99.90;;;;;;5012522;28;20037;-88
2021/01/02 09:59:49;;;;;;;87.05;39.65;;;3.50;99.90;;;;;;5012327;28;20849;-89
2021/01/02 10:02:14;;;;;;;87.35;40.47;;;3.50;99.90;;;;;;5011765;28;20056;-88
2021/01/02 10:04:45;;;;;;;89.22;41.22;;;3.60;99.90;;;;;;5012049;28;20025;-88
2021/01/02 10:07:10;;;;;;;93.95;41.38;;;3.60;99.90;;;;;;5012332;28;20022;-87
2021/01/02 10:09:45;;;;;;;84.45;40.13;;;3.60;99.90;;;;;;5012746;28;20029;-88
2021/01/02 10:12:12;;;;;;;96.18;43.50;;;3.60;99.90;;;;;;5011592;28;20037;-87
2021/01/02 10:14:38;;;;;;;90.40;41.03;;;3.70;99.90;;;;;;5020584;28;20025;-89
2021/01/02 10:17:04;;;;;;;95.53;43.85;;;3.60;99.90;;;;;;5015509;28;20108;-89
2021/01/02 10:19:32;;;;;;;84.93;39.05;;;3.60;99.90;;;;;;5014152;28;20545;-90
2021/01/02 10:22:03;;;;;;;90.05;39.35;;;3.60;99.90;;;;;;5012185;28;20026;-87
2021/01/02 10:24:30;;;;;;;89.07;39.20;;;3.60;99.90;;;;;;4998261;28;20018;-87
2021/01/02 10:26:55;;;;;;;86.72;38.25;;;3.70;99.90;;;;;;4999566;28;20077;-87
2021/01/02 10:29:21;;;;;;;87.32;40.13;;;3.70;99.90;;;;;;5002130;28;20020;-87
2021/01/02 10:31:47;;;;;;;95.43;38.70;;;3.70;99.90;;;;;;5001492;28;20046;-87
2021/01/02 10:34:14;;;;;;;96.88;41.30;;;3.70;99.90;;;;;;4993544;28;20030;-85
2021/01/02 10:36:40;;;;;;;89.07;40.67;;;3.80;99.90;;;;;;5003062;28;20026;-87
2021/01/02 10:39:06;;;;;;;84.07;38.40;;;3.80;99.90;;;;;;5005272;28;20114;-87
2021/01/02 10:41:31;;;;;;;96.97;39.63;;;3.80;99.90;;;;;;5007976;28;20624;-87
2021/01/02 10:43:57;;;;;;;89.40;39.55;;;3.90;99.90;;;;;;5000068;28;20025;-88
2021/01/02 10:46:23;;;;;;;84.22;38.88;;;3.90;99.90;;;;;;5015252;28;20014;-87
2021/01/02 10:48:49;;;;;;;82.32;37.17;;;3.90;99.90;;;;;;5003952;28;20482;-87
2021/01/02 10:51:17;;;;;;;87.93;36.03;;;3.90;99.90;;;;;;5004957;28;20021;-87
2021/01/02 10:53:43;;;;;;;87.65;37.50;;;4.00;99.90;;;;;;5000942;28;20418;-87
2021/01/02 10:56:16;;;;;;;84.60;38.10;;;4.00;99.90;;;;;;5009802;28;20021;-87
2021/01/02 10:58:43;;;;;;;86.85;39.13;;;3.90;99.90;;;;;;5010559;28;20029;-88
2021/01/02 11:01:08;;;;;;;78.80;36.60;;;3.90;99.90;;;;;;5006294;28;20025;-88
2021/01/02 11:03:35;;;;;;;77.57;34.72;;;3.80;99.90;;;;;;5009862;28;20018;-88
2021/01/02 11:06:08;;;;;;;87.03;37.92;;;3.80;99.90;;;;;;5008183;28;20540;-88
2021/01/02 11:08:35;;;;;;;92.40;39.63;;;3.80;99.90;;;;;;5004906;28;20019;-88
2021/01/02 11:11:01;;;;;;;97.68;41.53;;;3.80;99.90;;;;;;5003745;28;20093;-87
2021/01/02 11:13:26;;;;;;;86.80;38.03;;;3.70;99.90;;;;;;5004306;28;20465;-87
2021/01/02 11:15:52;;;;;;;92.32;38.08;;;3.70;99.90;;;;;;5001653;28;20101;-88
2021/01/02 11:18:18;;;;;;;95.30;39.83;;;3.70;99.90;;;;;;4995555;28;20033;-87
2021/01/02 11:20:45;;;;;;;91.80;42.10;;;3.70;99.90;;;;;;5005033;28;20105;-87
2021/01/02 11:23:12;;;;;;;97.68;41.53;;;3.70;99.90;;;;;;5002483;28;20022;-87
2021/01/02 11:25:37;;;;;;;96.50;39.55;;;3.70;99.90;;;;;;5001885;28;20022;-88
2021/01/02 11:28:03;;;;;;;89.05;36.65;;;3.70;99.90;;;;;;5001288;28;20168;-87
2021/01/02 11:30:29;;;;;;;84.40;36.88;;;3.70;99.90;;;;;;5013678;28;20022;-87
2021/01/02 11:32:54;;;;;;;84.90;38.45;;;3.70;99.90;;;;;;5001337;28;20053;-87
2021/01/02 11:35:20;;;;;;;86.57;36.28;;;3.70;99.90;;;;;;5001477;28;20045;-87
2021/01/02 11:37:46;;;;;;;79.88;35.40;;;3.80;99.90;;;;;;5014783;28;20018;-88
2021/01/02 11:40:12;;;;;;;79.65;36.33;;;3.70;99.90;;;;;;5011333;28;20397;-88
2021/01/02 11:42:37;;;;;;;79.45;35.88;;;3.70;99.90;;;;;;4997725;28;20023;-88
2021/01/02 11:45:04;;;;;;;76.32;34.47;;;3.70;99.90;;;;;;5012449;28;20021;-87
2021/01/02 11:47:29;;;;;;;78.03;35.95;;;3.70;99.90;;;;;;5014261;28;20096;-91
2021/01/02 11:49:55;;;;;;;81.30;34.17;;;3.70;99.90;;;;;;5015098;28;20485;-88
2021/01/02 11:52:20;;;;;;;89.22;36.15;;;3.80;99.90;;;;;;5013735;28;20088;-89
2021/01/02 11:54:46;;;;;;;80.32;34.97;;;3.80;99.90;;;;;;5015679;28;20408;-87
2021/01/02 11:57:11;;;;;;;83.45;34.50;;;3.80;99.90;;;;;;5014203;28;20049;-88
2021/01/02 11:59:37;;;;;;;82.90;33.92;;;3.90;99.90;;;;;;5013964;28;20030;-88
2021/01/02 12:02:06;;;;;;;73.82;33.50;;;3.90;99.90;;;;;;5014026;28;20032;-88
2021/01/02 12:04:32;;;;;;;68.90;30.50;;;3.90;99.90;;;;;;5014445;28;20022;-88
2021/01/02 12:06:59;;;;;;;79.55;34.13;;;3.90;99.90;;;;;;5014272;28;20058;-88
2021/01/02 12:09:26;;;;;;;85.45;35.00;;;4.00;99.90;;;;;;5015308;28;20056;-88
2021/01/02 12:11:52;;;;;;;83.03;34.00;;;4.00;99.90;;;;;;5014240;28;20025;-88
2021/01/02 12:14:27;;;;;;;89.20;38.00;;;4.10;99.90;;;;;;5014432;28;20030;-88
2021/01/02 12:16:55;;;;;;;75.88;33.45;;;4.10;99.90;;;;;;5014360;28;20528;-88
2021/01/02 12:19:24;;;;;;;76.63;34.00;;;4.10;99.90;;;;;;5013643;28;20034;-88
2021/01/02 12:21:56;;;;;;;79.10;35.37;;;4.20;99.90;;;;;;4994543;28;20030;-88
2021/01/02 12:24:21;;;;;;;85.95;38.00;;;4.20;99.90;;;;;;4994907;28;20078;-88
2021/01/02 12:26:51;;;;;;;90.97;36.67;;;4.20;99.90;;;;;;5007590;28;20030;-91
2021/01/02 12:29:19;;;;;;;78.83;34.90;;;4.20;99.90;;;;;;5016570;28;20021;-90
2021/01/02 12:31:50;;;;;;;73.00;30.73;;;4.20;99.90;;;;;;5015911;28;20138;-89
2021/01/02 12:34:17;;;;;;;76.75;33.47;;;4.20;99.90;;;;;;5016373;28;20021;-91
2021/01/02 12:36:43;;;;;;;82.97;34.83;;;4.30;99.90;;;;;;5017308;28;20545;-90
2021/01/02 12:39:11;;;;;;;71.10;31.95;;;4.20;99.90;;;;;;5014330;28;20030;-91
2021/01/02 12:41:36;;;;;;;65.95;28.08;;;4.30;99.90;;;;;;5014775;28;20030;-90
2021/01/02 12:44:03;;;;;;;74.63;32.78;;;4.30;99.90;;;;;;5014975;28;20113;-90
2021/01/02 12:46:39;;;;;;;72.47;32.72;;;4.30;99.90;;;;;;5001975;28;20018;-91
2021/01/02 12:49:05;;;;;;;72.93;32.80;;;4.40;99.90;;;;;;5007082;28;20030;-91
2021/01/02 12:51:31;;;;;;;87.03;34.72;;;4.40;99.90;;;;;;5013942;28;20030;-90
2021/01/02 12:53:57;;;;;;;72.20;31.80;;;4.40;99.90;;;;;;5007612;28;20093;-92
2021/01/02 12:56:22;;;;;;;82.93;37.22;;;4.40;99.90;;;;;;5015145;28;20129;-90
2021/01/02 12:58:47;;;;;;;69.05;32.80;;;4.40;99.90;;;;;;5020513;28;20022;-90